Accueil
METAR-TAF:

METAR-TAF

Aéroports :

Madison, Mississippi, États-Unis

latitude: 32-26-19N, longitude: 090-06-11W, altitude: 99 m

Observation

Le bulletin a été fait il y a 16 heures et 55 minutes, à 08:15 UTC
Vent calme
Température 24°C
Humidité 100%
Pression 1020 hPa
Visibilité: 16.1 km
Nuages épars à une hauteur de 4200 ft
Nuages épars à une hauteur de 4800 ft

METAR: KMBO 140815Z AUTO 00000KT 10SM SCT042 SCT048 24/24 A3012 RMK AO2

Heure: 20:10 (01:10 UTC)


TAF: absent

Observations et prévisions météorologiques de plus de 4000 aéroports (messages METAR et TAF).

Les stations disponibles sont représentées par des disques jaunes et rouges sur la carte.

Passer la souris dessus pour voir le nom de la station.

Cliquer dessus pour voir les observations et prévisions météorologiques.

Pour changer de carte: cliquez sur les boutons verts avec une croix noire pour zoomer, sur le bouton vert avec un tiret pour effectuer un zoom arrière, ou sur les flèches vertes pour les cartes adjacentes.


METAR-TAF: